sensor_id;sensor_type;location;lat;lon;timestamp;temperature;humidity
21318;DHT22;10818;50.830;6.524;2022-08-05T00:00:51;21.50;99.90
21318;DHT22;10818;50.830;6.524;2022-08-05T00:05:51;21.50;99.90
21318;DHT22;10818;50.830;6.524;2022-08-05T00:10:52;21.50;99.90
21318;DHT22;10818;50.830;6.524;2022-08-05T00:15:52;21.40;99.90
21318;DHT22;10818;50.830;6.524;2022-08-05T00:20:53;21.30;99.90
21318;DHT22;10818;50.830;6.524;2022-08-05T00:25:53;21.30;99.90
21318;DHT22;10818;50.830;6.524;2022-08-05T00:30:54;21.30;99.90
21318;DHT22;10818;50.830;6.524;2022-08-05T00:35:54;21.20;99.90
21318;DHT22;10818;50.830;6.524;2022-08-05T00:40:56;21.10;99.90
21318;DHT22;10818;50.830;6.524;2022-08-05T00:45:57;21.10;99.90
21318;DHT22;10818;50.830;6.524;2022-08-05T00:50:57;21.00;99.90
21318;DHT22;10818;50.830;6.524;2022-08-05T00:55:58;21.00;99.90
21318;DHT22;10818;50.830;6.524;2022-08-05T01:00:59;20.90;99.90
21318;DHT22;10818;50.830;6.524;2022-08-05T01:06:00;20.90;99.90
21318;DHT22;10818;50.830;6.524;2022-08-05T01:17:05;20.60;99.90
21318;DHT22;10818;50.830;6.524;2022-08-05T01:27:12;20.50;99.90
21318;DHT22;10818;50.830;6.524;2022-08-05T01:32:21;20.30;99.90
21318;DHT22;10818;50.830;6.524;2022-08-05T01:37:37;20.40;99.90
21318;DHT22;10818;50.830;6.524;2022-08-05T01:42:39;20.40;99.90
21318;DHT22;10818;50.830;6.524;2022-08-05T01:47:41;20.40;99.90
21318;DHT22;10818;50.830;6.524;2022-08-05T01:52:43;20.30;99.90
21318;DHT22;10818;50.830;6.524;2022-08-05T01:57:44;20.20;99.90
21318;DHT22;10818;50.830;6.524;2022-08-05T02:02:56;20.10;99.90
21318;DHT22;10818;50.830;6.524;2022-08-05T02:07:59;20.20;99.90
21318;DHT22;10818;50.830;6.524;2022-08-05T02:13:13;20.30;99.90
21318;DHT22;10818;50.830;6.524;2022-08-05T02:18:17;20.20;99.90
21318;DHT22;10818;50.830;6.524;2022-08-05T02:23:24;20.20;99.90
21318;DHT22;10818;50.830;6.524;2022-08-05T02:28:26;20.10;99.90
21318;DHT22;10818;50.830;6.524;2022-08-05T02:33:27;20.00;99.90
21318;DHT22;10818;50.830;6.524;2022-08-05T02:38:28;19.60;99.90
21318;DHT22;10818;50.830;6.524;2022-08-05T02:43:29;19.30;99.90
21318;DHT22;10818;50.830;6.524;2022-08-05T02:48:31;19.20;99.90
21318;DHT22;10818;50.830;6.524;2022-08-05T02:53:32;19.40;99.90
21318;DHT22;10818;50.830;6.524;2022-08-05T02:58:33;19.60;99.90
21318;DHT22;10818;50.830;6.524;2022-08-05T03:03:33;19.50;99.90
21318;DHT22;10818;50.830;6.524;2022-08-05T03:08:37;19.40;99.90
21318;DHT22;10818;50.830;6.524;2022-08-05T03:13:38;19.40;99.90
21318;DHT22;10818;50.830;6.524;2022-08-05T03:18:38;19.50;99.90
21318;DHT22;10818;50.830;6.524;2022-08-05T03:23:39;19.60;99.90
21318;DHT22;10818;50.830;6.524;2022-08-05T03:28:40;19.70;99.90
21318;DHT22;10818;50.830;6.524;2022-08-05T03:33:41;19.80;99.90
21318;DHT22;10818;50.830;6.524;2022-08-05T03:38:41;19.80;99.90
21318;DHT22;10818;50.830;6.524;2022-08-05T03:43:42;19.90;99.90
21318;DHT22;10818;50.830;6.524;2022-08-05T03:48:42;19.90;99.90
21318;DHT22;10818;50.830;6.524;2022-08-05T03:53:51;19.90;99.90
21318;DHT22;10818;50.830;6.524;2022-08-05T03:58:54;20.00;99.90
21318;DHT22;10818;50.830;6.524;2022-08-05T04:03:56;19.80;99.90
21318;DHT22;10818;50.830;6.524;2022-08-05T04:08:57;19.90;99.90
21318;DHT22;10818;50.830;6.524;2022-08-05T04:13:58;19.80;99.90
21318;DHT22;10818;50.830;6.524;2022-08-05T04:18:59;19.60;99.90
21318;DHT22;10818;50.830;6.524;2022-08-05T04:23:59;19.60;99.90
21318;DHT22;10818;50.830;6.524;2022-08-05T04:29:00;19.60;99.90
21318;DHT22;10818;50.830;6.524;2022-08-05T04:34:01;19.80;99.90
21318;DHT22;10818;50.830;6.524;2022-08-05T04:39:01;19.80;99.90
21318;DHT22;10818;50.830;6.524;2022-08-05T04:44:02;19.90;99.90
21318;DHT22;10818;50.830;6.524;2022-08-05T04:49:02;19.60;99.90
21318;DHT22;10818;50.830;6.524;2022-08-05T04:54:03;19.80;99.90
21318;DHT22;10818;50.830;6.524;2022-08-05T04:59:03;19.70;99.90
21318;DHT22;10818;50.830;6.524;2022-08-05T05:04:04;19.70;99.90
21318;DHT22;10818;50.830;6.524;2022-08-05T05:09:04;19.90;99.90
21318;DHT22;10818;50.830;6.524;2022-08-05T05:14:05;20.00;99.90
21318;DHT22;10818;50.830;6.524;2022-08-05T05:19:05;20.00;99.90
21318;DHT22;10818;50.830;6.524;2022-08-05T05:24:06;20.10;99.90
21318;DHT22;10818;50.830;6.524;2022-08-05T05:29:06;20.10;99.90
21318;DHT22;10818;50.830;6.524;2022-08-05T05:34:07;20.10;99.90
21318;DHT22;10818;50.830;6.524;2022-08-05T05:39:07;20.10;99.90
21318;DHT22;10818;50.830;6.524;2022-08-05T05:44:08;20.10;99.90
21318;DHT22;10818;50.830;6.524;2022-08-05T05:49:09;20.20;99.90
21318;DHT22;10818;50.830;6.524;2022-08-05T05:54:09;20.20;99.90
21318;DHT22;10818;50.830;6.524;2022-08-05T05:59:10;20.30;99.90
21318;DHT22;10818;50.830;6.524;2022-08-05T06:04:11;20.30;99.90
21318;DHT22;10818;50.830;6.524;2022-08-05T06:09:12;19.90;99.90
21318;DHT22;10818;50.830;6.524;2022-08-05T06:14:12;20.10;99.90
21318;DHT22;10818;50.830;6.524;2022-08-05T06:19:13;20.10;99.90
21318;DHT22;10818;50.830;6.524;2022-08-05T06:24:13;20.30;99.90
21318;DHT22;10818;50.830;6.524;2022-08-05T06:29:14;20.30;99.90
21318;DHT22;10818;50.830;6.524;2022-08-05T06:34:14;20.00;99.90
21318;DHT22;10818;50.830;6.524;2022-08-05T06:39:14;20.20;99.90
21318;DHT22;10818;50.830;6.524;2022-08-05T06:44:15;19.90;99.90
21318;DHT22;10818;50.830;6.524;2022-08-05T06:49:15;20.20;99.90
21318;DHT22;10818;50.830;6.524;2022-08-05T06:54:16;20.50;99.90
21318;DHT22;10818;50.830;6.524;2022-08-05T06:59:16;20.70;99.90
21318;DHT22;10818;50.830;6.524;2022-08-05T07:04:17;20.60;99.90
21318;DHT22;10818;50.830;6.524;2022-08-05T07:09:17;20.70;99.90
21318;DHT22;10818;50.830;6.524;2022-08-05T07:14:18;20.50;99.90
21318;DHT22;10818;50.830;6.524;2022-08-05T07:19:37;20.50;99.90
21318;DHT22;10818;50.830;6.524;2022-08-05T07:24:38;20.30;99.90
21318;DHT22;10818;50.830;6.524;2022-08-05T07:29:38;20.20;99.90
21318;DHT22;10818;50.830;6.524;2022-08-05T07:34:39;20.20;99.90
21318;DHT22;10818;50.830;6.524;2022-08-05T07:39:39;19.90;99.90
21318;DHT22;10818;50.830;6.524;2022-08-05T07:44:40;20.00;99.90
21318;DHT22;10818;50.830;6.524;2022-08-05T07:49:40;19.60;99.90
21318;DHT22;10818;50.830;6.524;2022-08-05T07:54:41;19.70;99.90
21318;DHT22;10818;50.830;6.524;2022-08-05T07:59:41;19.30;99.90
21318;DHT22;10818;50.830;6.524;2022-08-05T08:04:42;19.60;99.90
21318;DHT22;10818;50.830;6.524;2022-08-05T08:09:42;19.50;99.90
21318;DHT22;10818;50.830;6.524;2022-08-05T08:14:43;19.60;99.90
21318;DHT22;10818;50.830;6.524;2022-08-05T08:19:44;19.80;99.90
21318;DHT22;10818;50.830;6.524;2022-08-05T08:24:44;19.60;99.90
21318;DHT22;10818;50.830;6.524;2022-08-05T08:29:45;19.50;99.90
21318;DHT22;10818;50.830;6.524;2022-08-05T08:34:45;19.40;99.90
21318;DHT22;10818;50.830;6.524;2022-08-05T08:39:46;19.50;99.90
21318;DHT22;10818;50.830;6.524;2022-08-05T08:44:46;19.60;99.90
21318;DHT22;10818;50.830;6.524;2022-08-05T08:49:47;19.50;99.90
21318;DHT22;10818;50.830;6.524;2022-08-05T08:54:49;19.60;99.90
21318;DHT22;10818;50.830;6.524;2022-08-05T08:59:51;19.50;99.90
21318;DHT22;10818;50.830;6.524;2022-08-05T09:04:51;19.50;99.90
21318;DHT22;10818;50.830;6.524;2022-08-05T09:09:52;19.10;99.90
21318;DHT22;10818;50.830;6.524;2022-08-05T09:14:52;18.80;99.90
21318;DHT22;10818;50.830;6.524;2022-08-05T09:19:53;18.90;99.90
21318;DHT22;10818;50.830;6.524;2022-08-05T09:24:57;18.90;99.90
21318;DHT22;10818;50.830;6.524;2022-08-05T09:29:58;18.80;99.90
21318;DHT22;10818;50.830;6.524;2022-08-05T09:34:58;18.80;99.90
21318;DHT22;10818;50.830;6.524;2022-08-05T09:40:00;18.90;99.90
21318;DHT22;10818;50.830;6.524;2022-08-05T09:45:04;18.80;99.90
21318;DHT22;10818;50.830;6.524;2022-08-05T09:50:05;19.10;99.90
21318;DHT22;10818;50.830;6.524;2022-08-05T09:55:07;18.80;99.90
21318;DHT22;10818;50.830;6.524;2022-08-05T10:05:15;19.40;99.90
21318;DHT22;10818;50.830;6.524;2022-08-05T10:10:18;19.40;99.90
21318;DHT22;10818;50.830;6.524;2022-08-05T10:15:29;19.40;99.90
21318;DHT22;10818;50.830;6.524;2022-08-05T10:20:30;19.80;99.90
21318;DHT22;10818;50.830;6.524;2022-08-05T10:25:31;20.30;99.90
21318;DHT22;10818;50.830;6.524;2022-08-05T10:30:33;20.70;99.90
21318;DHT22;10818;50.830;6.524;2022-08-05T10:35:34;20.70;99.90
21318;DHT22;10818;50.830;6.524;2022-08-05T10:40:40;20.50;99.90
21318;DHT22;10818;50.830;6.524;2022-08-05T10:45:53;20.50;99.90
21318;DHT22;10818;50.830;6.524;2022-08-05T10:51:01;20.70;99.90
21318;DHT22;10818;50.830;6.524;2022-08-05T10:56:03;21.10;99.90
21318;DHT22;10818;50.830;6.524;2022-08-05T11:01:05;21.80;99.90
21318;DHT22;10818;50.830;6.524;2022-08-05T11:16:25;23.10;99.90
21318;DHT22;10818;50.830;6.524;2022-08-05T11:21:29;23.50;99.90
21318;DHT22;10818;50.830;6.524;2022-08-05T11:26:30;24.20;99.90
21318;DHT22;10818;50.830;6.524;2022-08-05T11:31:30;24.60;99.90
21318;DHT22;10818;50.830;6.524;2022-08-05T11:36:44;24.40;99.90
21318;DHT22;10818;50.830;6.524;2022-08-05T11:41:51;24.50;99.90
21318;DHT22;10818;50.830;6.524;2022-08-05T11:46:52;24.90;99.90
21318;DHT22;10818;50.830;6.524;2022-08-05T11:51:52;25.20;99.90
21318;DHT22;10818;50.830;6.524;2022-08-05T11:56:54;25.20;99.90
21318;DHT22;10818;50.830;6.524;2022-08-05T12:01:55;24.90;99.90
21318;DHT22;10818;50.830;6.524;2022-08-05T12:06:58;24.70;99.90
21318;DHT22;10818;50.830;6.524;2022-08-05T12:11:59;24.80;99.90
21318;DHT22;10818;50.830;6.524;2022-08-05T12:16:59;24.60;99.90
21318;DHT22;10818;50.830;6.524;2022-08-05T12:22:05;24.30;99.90
21318;DHT22;10818;50.830;6.524;2022-08-05T12:27:06;25.20;99.90
21318;DHT22;10818;50.830;6.524;2022-08-05T12:32:07;25.50;99.90
21318;DHT22;10818;50.830;6.524;2022-08-05T12:37:08;25.40;99.90
21318;DHT22;10818;50.830;6.524;2022-08-05T12:42:12;25.50;99.90
21318;DHT22;10818;50.830;6.524;2022-08-05T12:47:13;26.20;99.90
21318;DHT22;10818;50.830;6.524;2022-08-05T12:52:15;26.90;99.90
21318;DHT22;10818;50.830;6.524;2022-08-05T12:57:16;26.80;99.90
21318;DHT22;10818;50.830;6.524;2022-08-05T13:02:26;26.70;99.90
21318;DHT22;10818;50.830;6.524;2022-08-05T13:07:27;26.40;99.90
21318;DHT22;10818;50.830;6.524;2022-08-05T13:12:27;26.70;99.90
21318;DHT22;10818;50.830;6.524;2022-08-05T13:17:28;27.30;99.90
21318;DHT22;10818;50.830;6.524;2022-08-05T13:22:29;26.80;99.90
21318;DHT22;10818;50.830;6.524;2022-08-05T13:27:31;26.50;99.90
21318;DHT22;10818;50.830;6.524;2022-08-05T13:32:32;26.50;99.90
21318;DHT22;10818;50.830;6.524;2022-08-05T13:37:32;26.80;99.90
21318;DHT22;10818;50.830;6.524;2022-08-05T13:42:33;26.90;99.90
21318;DHT22;10818;50.830;6.524;2022-08-05T13:47:33;26.60;99.90
21318;DHT22;10818;50.830;6.524;2022-08-05T13:52:34;26.20;99.90
21318;DHT22;10818;50.830;6.524;2022-08-05T13:57:34;25.70;99.90
21318;DHT22;10818;50.830;6.524;2022-08-05T14:02:35;25.10;99.90
21318;DHT22;10818;50.830;6.524;2022-08-05T14:07:36;24.10;99.90
21318;DHT22;10818;50.830;6.524;2022-08-05T14:12:38;24.20;99.90
21318;DHT22;10818;50.830;6.524;2022-08-05T14:17:38;24.50;99.90
21318;DHT22;10818;50.830;6.524;2022-08-05T14:22:39;24.10;99.90
21318;DHT22;10818;50.830;6.524;2022-08-05T14:27:40;24.00;99.90
21318;DHT22;10818;50.830;6.524;2022-08-05T14:32:40;24.00;99.90
21318;DHT22;10818;50.830;6.524;2022-08-05T14:37:42;23.60;99.90
21318;DHT22;10818;50.830;6.524;2022-08-05T14:42:42;23.60;99.90
21318;DHT22;10818;50.830;6.524;2022-08-05T14:47:43;23.60;99.90
21318;DHT22;10818;50.830;6.524;2022-08-05T14:52:43;23.30;99.90
21318;DHT22;10818;50.830;6.524;2022-08-05T14:57:43;23.60;99.90
21318;DHT22;10818;50.830;6.524;2022-08-05T15:02:44;23.60;99.90
21318;DHT22;10818;50.830;6.524;2022-08-05T15:07:44;23.80;99.90
21318;DHT22;10818;50.830;6.524;2022-08-05T15:12:45;24.10;99.90
21318;DHT22;10818;50.830;6.524;2022-08-05T15:17:45;24.50;99.90
21318;DHT22;10818;50.830;6.524;2022-08-05T15:22:48;24.20;99.90
21318;DHT22;10818;50.830;6.524;2022-08-05T15:27:49;24.40;99.90
21318;DHT22;10818;50.830;6.524;2022-08-05T15:32:49;24.50;99.90
21318;DHT22;10818;50.830;6.524;2022-08-05T15:37:50;24.40;99.90
21318;DHT22;10818;50.830;6.524;2022-08-05T15:42:51;24.40;99.90
21318;DHT22;10818;50.830;6.524;2022-08-05T15:47:51;24.00;99.90
21318;DHT22;10818;50.830;6.524;2022-08-05T15:52:52;24.20;99.90
21318;DHT22;10818;50.830;6.524;2022-08-05T15:57:52;24.10;99.90
21318;DHT22;10818;50.830;6.524;2022-08-05T16:02:53;24.20;99.90
21318;DHT22;10818;50.830;6.524;2022-08-05T16:07:53;24.40;99.90
21318;DHT22;10818;50.830;6.524;2022-08-05T16:12:54;24.40;99.90
21318;DHT22;10818;50.830;6.524;2022-08-05T16:17:54;24.00;99.90
21318;DHT22;10818;50.830;6.524;2022-08-05T16:22:54;23.90;99.90
21318;DHT22;10818;50.830;6.524;2022-08-05T16:27:55;23.90;99.90
21318;DHT22;10818;50.830;6.524;2022-08-05T16:32:56;23.80;99.90
21318;DHT22;10818;50.830;6.524;2022-08-05T16:37:57;23.60;99.90
21318;DHT22;10818;50.830;6.524;2022-08-05T16:42:57;23.80;99.90
21318;DHT22;10818;50.830;6.524;2022-08-05T16:47:57;23.60;99.90
21318;DHT22;10818;50.830;6.524;2022-08-05T16:52:58;23.50;99.90
21318;DHT22;10818;50.830;6.524;2022-08-05T16:57:59;23.10;99.90
21318;DHT22;10818;50.830;6.524;2022-08-05T17:03:03;23.00;99.90
21318;DHT22;10818;50.830;6.524;2022-08-05T17:08:04;22.90;99.90
21318;DHT22;10818;50.830;6.524;2022-08-05T17:13:04;22.80;99.90
21318;DHT22;10818;50.830;6.524;2022-08-05T17:18:05;22.80;99.90
21318;DHT22;10818;50.830;6.524;2022-08-05T17:23:05;22.90;99.90
21318;DHT22;10818;50.830;6.524;2022-08-05T17:28:06;22.90;99.90
21318;DHT22;10818;50.830;6.524;2022-08-05T17:33:06;22.80;99.90
21318;DHT22;10818;50.830;6.524;2022-08-05T17:38:07;22.80;99.90
21318;DHT22;10818;50.830;6.524;2022-08-05T17:43:08;23.10;99.90
21318;DHT22;10818;50.830;6.524;2022-08-05T17:48:08;23.00;99.80
21318;DHT22;10818;50.830;6.524;2022-08-05T17:53:09;22.80;99.70
21318;DHT22;10818;50.830;6.524;2022-08-05T17:58:10;22.60;98.90
21318;DHT22;10818;50.830;6.524;2022-08-05T18:03:11;22.30;98.70
21318;DHT22;10818;50.830;6.524;2022-08-05T18:08:11;22.20;98.90
21318;DHT22;10818;50.830;6.524;2022-08-05T18:13:12;22.00;99.10
21318;DHT22;10818;50.830;6.524;2022-08-05T18:18:12;21.80;99.40
21318;DHT22;10818;50.830;6.524;2022-08-05T18:23:12;21.40;99.60
21318;DHT22;10818;50.830;6.524;2022-08-05T18:28:13;21.30;99.90
21318;DHT22;10818;50.830;6.524;2022-08-05T18:33:20;21.20;99.90
21318;DHT22;10818;50.830;6.524;2022-08-05T18:38:20;21.20;99.90
21318;DHT22;10818;50.830;6.524;2022-08-05T18:43:21;21.10;99.90
21318;DHT22;10818;50.830;6.524;2022-08-05T18:48:21;20.90;99.90
21318;DHT22;10818;50.830;6.524;2022-08-05T18:53:21;20.60;99.90
21318;DHT22;10818;50.830;6.524;2022-08-05T18:58:22;20.50;99.90
21318;DHT22;10818;50.830;6.524;2022-08-05T19:03:22;20.30;99.90
21318;DHT22;10818;50.830;6.524;2022-08-05T19:08:23;20.10;99.90
21318;DHT22;10818;50.830;6.524;2022-08-05T19:13:23;19.90;99.90
21318;DHT22;10818;50.830;6.524;2022-08-05T19:18:24;19.80;99.90
21318;DHT22;10818;50.830;6.524;2022-08-05T19:23:24;19.70;99.90
21318;DHT22;10818;50.830;6.524;2022-08-05T19:28:25;19.40;99.90
21318;DHT22;10818;50.830;6.524;2022-08-05T19:33:25;19.30;99.90
21318;DHT22;10818;50.830;6.524;2022-08-05T19:38:26;19.20;99.90
21318;DHT22;10818;50.830;6.524;2022-08-05T19:43:26;19.00;99.90
21318;DHT22;10818;50.830;6.524;2022-08-05T19:48:27;18.90;99.90
21318;DHT22;10818;50.830;6.524;2022-08-05T19:53:27;18.70;99.90
21318;DHT22;10818;50.830;6.524;2022-08-05T19:58:28;18.70;99.90
21318;DHT22;10818;50.830;6.524;2022-08-05T20:03:29;18.60;99.90
21318;DHT22;10818;50.830;6.524;2022-08-05T20:08:29;18.60;99.90
21318;DHT22;10818;50.830;6.524;2022-08-05T20:13:30;18.40;99.90
21318;DHT22;10818;50.830;6.524;2022-08-05T20:18:30;18.30;99.90
21318;DHT22;10818;50.830;6.524;2022-08-05T20:23:32;18.20;99.90
21318;DHT22;10818;50.830;6.524;2022-08-05T20:28:32;18.10;99.90
21318;DHT22;10818;50.830;6.524;2022-08-05T20:33:33;18.00;99.90
21318;DHT22;10818;50.830;6.524;2022-08-05T20:38:33;18.00;99.90
21318;DHT22;10818;50.830;6.524;2022-08-05T20:43:34;17.80;99.90
21318;DHT22;10818;50.830;6.524;2022-08-05T20:48:35;17.70;99.90
21318;DHT22;10818;50.830;6.524;2022-08-05T20:53:35;17.50;99.90
21318;DHT22;10818;50.830;6.524;2022-08-05T20:58:36;17.40;99.90
21318;DHT22;10818;50.830;6.524;2022-08-05T21:03:36;17.30;99.90
21318;DHT22;10818;50.830;6.524;2022-08-05T21:08:37;17.10;99.90
21318;DHT22;10818;50.830;6.524;2022-08-05T21:13:38;17.00;99.90
21318;DHT22;10818;50.830;6.524;2022-08-05T21:18:38;16.90;99.90
21318;DHT22;10818;50.830;6.524;2022-08-05T21:23:39;16.80;99.90
21318;DHT22;10818;50.830;6.524;2022-08-05T21:28:39;16.70;99.90
21318;DHT22;10818;50.830;6.524;2022-08-05T21:33:40;16.60;99.90
21318;DHT22;10818;50.830;6.524;2022-08-05T21:38:40;16.50;99.90
21318;DHT22;10818;50.830;6.524;2022-08-05T21:43:41;16.30;99.90
21318;DHT22;10818;50.830;6.524;2022-08-05T21:48:41;16.20;99.90
21318;DHT22;10818;50.830;6.524;2022-08-05T21:53:42;16.10;99.90
21318;DHT22;10818;50.830;6.524;2022-08-05T21:58:42;16.00;99.90
21318;DHT22;10818;50.830;6.524;2022-08-05T22:03:43;15.90;99.90
21318;DHT22;10818;50.830;6.524;2022-08-05T22:08:43;15.80;99.90
21318;DHT22;10818;50.830;6.524;2022-08-05T22:13:44;15.70;99.90
21318;DHT22;10818;50.830;6.524;2022-08-05T22:18:45;15.80;99.90
21318;DHT22;10818;50.830;6.524;2022-08-05T22:23:45;15.70;99.90
21318;DHT22;10818;50.830;6.524;2022-08-05T22:29:05;15.60;99.90
21318;DHT22;10818;50.830;6.524;2022-08-05T22:34:05;15.60;99.90
21318;DHT22;10818;50.830;6.524;2022-08-05T22:39:06;15.60;99.90
21318;DHT22;10818;50.830;6.524;2022-08-05T22:44:07;15.50;99.90
21318;DHT22;10818;50.830;6.524;2022-08-05T22:49:08;15.40;99.90
21318;DHT22;10818;50.830;6.524;2022-08-05T22:54:09;15.40;99.90
21318;DHT22;10818;50.830;6.524;2022-08-05T22:59:09;15.20;99.90
21318;DHT22;10818;50.830;6.524;2022-08-05T23:04:09;15.30;99.90
21318;DHT22;10818;50.830;6.524;2022-08-05T23:09:10;15.30;99.90
21318;DHT22;10818;50.830;6.524;2022-08-05T23:14:11;15.30;99.90
21318;DHT22;10818;50.830;6.524;2022-08-05T23:19:11;15.40;99.90
21318;DHT22;10818;50.830;6.524;2022-08-05T23:24:12;15.30;99.90
21318;DHT22;10818;50.830;6.524;2022-08-05T23:29:12;15.20;99.90
21318;DHT22;10818;50.830;6.524;2022-08-05T23:34:12;15.10;99.90
21318;DHT22;10818;50.830;6.524;2022-08-05T23:39:13;15.00;99.90
21318;DHT22;10818;50.830;6.524;2022-08-05T23:44:14;14.80;99.90
21318;DHT22;10818;50.830;6.524;2022-08-05T23:49:15;14.70;99.90
21318;DHT22;10818;50.830;6.524;2022-08-05T23:54:16;14.60;99.90
21318;DHT22;10818;50.830;6.524;2022-08-05T23:59:16;14.50;99.90
